createdAt,value
2023-04-19T00:00:19.828Z,189.85
2023-04-19T00:01:19.873Z,191.29
2023-04-19T00:02:19.970Z,191.52
2023-04-19T00:03:20.138Z,191.65
2023-04-19T00:04:20.414Z,195.67
2023-04-19T00:05:20.062Z,195.14
2023-04-19T00:06:20.055Z,194.25
2023-04-19T00:07:20.096Z,192.65
2023-04-19T00:08:20.152Z,196.21
2023-04-19T00:09:20.178Z,193.57
2023-04-19T00:10:20.220Z,195.22
2023-04-19T00:11:20.259Z,193.65
2023-04-19T00:12:20.277Z,195.94
2023-04-19T00:13:20.348Z,188.36
2023-04-19T00:14:20.366Z,190.63
2023-04-19T00:15:20.388Z,192.82
2023-04-19T00:16:20.469Z,194.46
2023-04-19T00:17:20.478Z,190.77
2023-04-19T00:18:20.518Z,191.92
2023-04-19T00:19:20.570Z,194.04
2023-04-19T00:20:20.614Z,198.63
2023-04-19T00:21:20.631Z,197.18
2023-04-19T00:22:20.668Z,197.58
2023-04-19T00:23:20.707Z,195.94
2023-04-19T00:24:20.741Z,196.59
2023-04-19T00:25:20.789Z,189.75
2023-04-19T00:26:20.836Z,194.39
2023-04-19T00:27:20.868Z,194.05
2023-04-19T00:28:20.891Z,189.00
2023-04-19T00:29:20.951Z,188.85
2023-04-19T00:30:21.008Z,191.04
2023-04-19T00:31:21.069Z,193.21
2023-04-19T00:32:21.079Z,194.71
2023-04-19T00:33:21.148Z,197.74
2023-04-19T00:34:21.159Z,192.82
2023-04-19T00:35:21.197Z,194.47
2023-04-19T00:36:21.233Z,196.81
2023-04-19T00:37:21.279Z,192.92
2023-04-19T00:38:21.317Z,195.35
2023-04-19T00:39:21.350Z,194.26
2023-04-19T00:40:21.407Z,195.88
2023-04-19T00:41:21.437Z,194.59
2023-04-19T00:42:21.457Z,197.77
2023-04-19T00:43:21.532Z,197.99
2023-04-19T00:44:21.560Z,198.56
2023-04-19T00:45:21.600Z,200.92
2023-04-19T00:46:21.698Z,198.29
2023-04-19T00:47:21.674Z,194.39
2023-04-19T00:48:21.740Z,192.23
2023-04-19T00:49:21.740Z,195.89
2023-04-19T00:50:21.775Z,197.34
2023-04-19T00:51:21.804Z,199.70
2023-04-19T00:52:21.874Z,203.81
2023-04-19T00:53:21.904Z,197.88
2023-04-19T00:54:21.949Z,199.31
2023-04-19T00:55:21.989Z,199.72
2023-04-19T00:56:22.050Z,194.52
2023-04-19T00:57:22.057Z,195.83
2023-04-19T00:58:22.103Z,198.85
2023-04-19T00:59:22.165Z,199.29
2023-04-19T01:00:22.183Z,198.93
2023-04-19T01:01:22.310Z,199.61
2023-04-19T01:02:22.424Z,203.72
2023-04-19T01:03:22.543Z,203.51
2023-04-19T01:04:22.468Z,200.71
2023-04-19T01:05:22.439Z,201.04
2023-04-19T01:06:22.468Z,198.60
2023-04-19T01:07:22.509Z,199.21
2023-04-19T01:08:22.569Z,199.57
2023-04-19T01:09:22.574Z,200.43
2023-04-19T01:10:22.623Z,202.54
2023-04-19T01:11:22.676Z,203.85
2023-04-19T01:12:22.705Z,204.35
2023-04-19T01:13:22.795Z,205.03
2023-04-19T01:14:22.784Z,202.56
2023-04-19T01:15:22.815Z,203.54
2023-04-19T01:16:22.958Z,204.92
2023-04-19T01:17:22.926Z,203.81
2023-04-19T01:18:22.974Z,205.93
2023-04-19T01:19:23.003Z,203.03
2023-04-19T01:20:23.035Z,205.68
2023-04-19T01:21:23.078Z,208.62
2023-04-19T01:22:23.189Z,209.81
2023-04-19T01:23:23.167Z,210.33
2023-04-19T01:24:23.203Z,210.94
2023-04-19T01:25:23.219Z,207.84
2023-04-19T01:26:23.275Z,204.99
2023-04-19T01:27:23.311Z,205.09
2023-04-19T01:28:23.413Z,207.95
2023-04-19T01:29:23.429Z,207.64
2023-04-19T01:30:23.449Z,209.26
2023-04-19T01:31:23.524Z,207.93
2023-04-19T01:32:23.546Z,206.56
2023-04-19T01:33:23.568Z,209.75
2023-04-19T01:34:23.607Z,207.46
2023-04-19T01:35:23.669Z,211.77
2023-04-19T01:36:23.719Z,209.14
2023-04-19T01:37:23.752Z,209.36
2023-04-19T01:38:23.832Z,208.75
2023-04-19T01:39:23.824Z,208.29
2023-04-19T01:40:23.869Z,211.17
2023-04-19T01:41:23.942Z,208.91
2023-04-19T01:42:23.965Z,208.47
2023-04-19T01:43:24.083Z,208.26
2023-04-19T01:44:24.057Z,208.84
2023-04-19T01:45:24.101Z,210.36
2023-04-19T01:46:24.164Z,210.77
2023-04-19T01:47:24.184Z,212.78
2023-04-19T01:48:24.236Z,212.77
2023-04-19T01:49:24.267Z,211.11
2023-04-19T01:50:24.315Z,212.30
2023-04-19T01:51:24.372Z,213.51
2023-04-19T01:52:24.373Z,213.90
2023-04-19T01:53:24.424Z,212.58
2023-04-19T01:54:24.472Z,211.70
2023-04-19T01:55:24.484Z,211.48
2023-04-19T01:56:24.547Z,211.08
2023-04-19T01:57:24.598Z,208.77
2023-04-19T01:58:24.649Z,211.99
2023-04-19T01:59:24.710Z,212.87
2023-04-19T02:00:24.711Z,213.52
2023-04-19T02:01:24.831Z,213.25
2023-04-19T02:02:25.012Z,211.72
2023-04-19T02:03:24.961Z,209.99
2023-04-19T02:04:24.887Z,210.55
2023-04-19T02:05:24.914Z,211.05
2023-04-19T02:06:24.986Z,212.34
2023-04-19T02:07:25.014Z,209.82
2023-04-19T02:08:25.068Z,210.25
2023-04-19T02:09:25.099Z,210.87
2023-04-19T02:10:25.142Z,212.61
2023-04-19T02:11:25.179Z,211.62
2023-04-19T02:12:25.222Z,211.23
2023-04-19T02:13:25.252Z,211.69
2023-04-19T02:14:25.303Z,211.72
2023-04-19T02:15:25.371Z,212.07
2023-04-19T02:16:25.481Z,211.88
2023-04-19T02:17:25.475Z,214.04
2023-04-19T02:18:25.485Z,215.03
2023-04-19T02:19:25.529Z,213.09
2023-04-19T02:20:25.590Z,210.03
2023-04-19T02:21:25.645Z,213.60
2023-04-19T02:22:25.687Z,213.24
2023-04-19T02:23:25.737Z,213.30
2023-04-19T02:24:25.756Z,213.85
2023-04-19T02:25:25.806Z,215.24
2023-04-19T02:26:25.855Z,210.83
2023-04-19T02:27:25.917Z,215.04
2023-04-19T02:28:25.942Z,214.14
2023-04-19T02:29:26.005Z,213.12
2023-04-19T02:30:26.025Z,209.79
2023-04-19T02:31:26.108Z,211.80
2023-04-19T02:32:26.156Z,211.62
2023-04-19T02:33:26.164Z,212.96
2023-04-19T02:34:26.277Z,210.62
2023-04-19T02:35:26.230Z,214.44
2023-04-19T02:36:26.279Z,214.01
2023-04-19T02:37:26.394Z,215.27
2023-04-19T02:38:26.363Z,216.26
2023-04-19T02:39:26.424Z,214.14
2023-04-19T02:40:26.487Z,216.49
2023-04-19T02:41:26.521Z,213.74
2023-04-19T02:42:26.555Z,213.74
2023-04-19T02:43:26.591Z,213.45
2023-04-19T02:44:26.639Z,213.14
2023-04-19T02:45:26.682Z,212.62
2023-04-19T02:46:26.750Z,215.44
2023-04-19T02:47:26.861Z,213.29
2023-04-19T02:48:26.824Z,214.49
2023-04-19T02:49:26.879Z,213.77
2023-04-19T02:50:26.936Z,213.36
2023-04-19T02:51:26.984Z,212.43
2023-04-19T02:52:27.029Z,211.79
2023-04-19T02:53:27.050Z,210.96
2023-04-19T02:54:27.082Z,212.08
2023-04-19T02:55:27.129Z,213.34
2023-04-19T02:56:27.191Z,213.83
2023-04-19T02:57:27.196Z,215.65
2023-04-19T02:58:27.255Z,210.94
2023-04-19T02:59:27.279Z,213.09
2023-04-19T03:00:27.328Z,215.15
2023-04-19T03:01:27.401Z,212.92
2023-04-19T03:02:27.565Z,213.40
2023-04-19T03:03:27.533Z,212.62
2023-04-19T03:04:27.554Z,213.72
2023-04-19T03:05:27.555Z,214.08
2023-04-19T03:06:27.573Z,213.08
2023-04-19T03:07:27.621Z,216.41
2023-04-19T03:08:27.688Z,216.64
2023-04-19T03:09:27.706Z,214.18
2023-04-19T03:10:27.756Z,216.16
2023-04-19T03:11:27.804Z,217.63
2023-04-19T03:12:27.864Z,216.44
2023-04-19T03:13:27.859Z,216.58
2023-04-19T03:14:27.935Z,217.72
2023-04-19T03:15:27.940Z,217.05
2023-04-19T03:16:28.082Z,216.38
2023-04-19T03:17:28.053Z,216.48
2023-04-19T03:18:28.070Z,216.90
2023-04-19T03:19:28.115Z,218.31
2023-04-19T03:20:28.136Z,217.02
2023-04-19T03:21:28.221Z,219.86
2023-04-19T03:22:28.220Z,221.28
2023-04-19T03:23:28.323Z,219.30
2023-04-19T03:24:28.308Z,219.08
2023-04-19T03:25:28.348Z,215.78
2023-04-19T03:26:28.404Z,218.88
2023-04-19T03:27:28.439Z,219.41
2023-04-19T03:28:28.488Z,218.47
2023-04-19T03:29:28.516Z,218.75
2023-04-19T03:30:28.536Z,220.72
2023-04-19T03:31:28.647Z,221.35
2023-04-19T03:32:28.665Z,222.04
2023-04-19T03:33:28.698Z,220.97
2023-04-19T03:34:28.743Z,219.25
2023-04-19T03:35:28.780Z,218.12
2023-04-19T03:36:28.832Z,216.38
2023-04-19T03:37:28.858Z,218.44
2023-04-19T03:38:28.932Z,214.64
2023-04-19T03:39:28.937Z,215.76
2023-04-19T03:40:28.995Z,218.58
2023-04-19T03:41:29.038Z,216.16
2023-04-19T03:42:29.403Z,218.10
2023-04-19T03:43:29.110Z,216.80
2023-04-19T03:44:29.157Z,219.38
2023-04-19T03:45:29.182Z,214.78
2023-04-19T03:46:29.254Z,219.22
2023-04-19T03:47:29.281Z,217.79
2023-04-19T03:48:29.322Z,217.61
2023-04-19T03:49:29.370Z,219.05
2023-04-19T03:50:29.408Z,220.70
2023-04-19T03:51:29.444Z,220.23
2023-04-19T03:52:29.493Z,221.89
2023-04-19T03:53:29.527Z,220.47
2023-04-19T03:54:29.577Z,220.09
2023-04-19T03:55:29.602Z,218.26
2023-04-19T03:56:29.662Z,218.02
2023-04-19T03:57:29.716Z,219.67
2023-04-19T03:58:29.740Z,219.45
2023-04-19T03:59:29.779Z,220.64
2023-04-19T04:00:29.848Z,222.88
2023-04-19T04:01:29.879Z,220.71
2023-04-19T04:02:30.050Z,222.76
2023-04-19T04:03:30.231Z,220.73
2023-04-19T04:04:30.116Z,220.32
2023-04-19T04:05:30.129Z,221.62
2023-04-19T04:06:30.104Z,222.31
2023-04-19T04:07:30.151Z,221.97
2023-04-19T04:08:30.196Z,222.80
2023-04-19T04:09:30.228Z,220.88
2023-04-19T04:10:30.266Z,223.76
2023-04-19T04:11:30.297Z,221.24
2023-04-19T04:12:30.345Z,224.82
2023-04-19T04:13:30.380Z,224.95
2023-04-19T04:14:30.441Z,223.42
2023-04-19T04:15:30.465Z,227.53
2023-04-19T04:16:30.534Z,226.82
2023-04-19T04:17:30.557Z,226.85
2023-04-19T04:18:30.600Z,228.50
2023-04-19T04:19:30.638Z,227.81
2023-04-19T04:20:30.690Z,228.35
2023-04-19T04:21:30.727Z,227.23
2023-04-19T04:22:30.898Z,225.83
2023-04-19T04:23:30.817Z,227.03
2023-04-19T04:24:30.860Z,226.43
2023-04-19T04:25:30.931Z,226.94
2023-04-19T04:26:30.951Z,227.14
2023-04-19T04:27:31.005Z,228.18
2023-04-19T04:28:31.095Z,228.25
2023-04-19T04:29:31.105Z,228.84
2023-04-19T04:30:31.158Z,228.70
2023-04-19T04:31:31.252Z,230.36
2023-04-19T04:32:31.278Z,230.96
2023-04-19T04:33:31.320Z,228.92
2023-04-19T04:34:31.349Z,231.55
2023-04-19T04:35:31.400Z,230.66
2023-04-19T04:36:31.424Z,232.30
2023-04-19T04:37:31.457Z,230.45
2023-04-19T04:38:31.512Z,235.07
2023-04-19T04:39:31.599Z,236.75
2023-04-19T04:40:31.595Z,239.07
2023-04-19T04:41:31.691Z,238.02
2023-04-19T04:42:31.701Z,235.81
2023-04-19T04:43:31.749Z,238.84
2023-04-19T04:44:31.783Z,238.73
2023-04-19T04:45:31.826Z,239.18
2023-04-19T04:46:31.852Z,239.37
2023-04-19T04:47:31.892Z,240.51
2023-04-19T04:48:31.938Z,241.54
2023-04-19T04:49:31.992Z,241.78
2023-04-19T04:50:32.003Z,241.72
2023-04-19T04:51:32.058Z,243.57
2023-04-19T04:52:32.090Z,243.95
2023-04-19T04:53:32.146Z,243.27
2023-04-19T04:54:32.187Z,244.23
2023-04-19T04:55:32.202Z,242.96
2023-04-19T04:56:32.278Z,245.82
2023-04-19T04:57:32.276Z,247.23
2023-04-19T04:58:32.335Z,245.03
2023-04-19T04:59:32.369Z,245.08
2023-04-19T05:00:32.405Z,244.62
2023-04-19T05:01:32.538Z,242.85
2023-04-19T05:02:32.571Z,241.32
2023-04-19T05:03:32.587Z,243.14
2023-04-19T05:04:32.605Z,244.08
2023-04-19T05:05:32.594Z,242.27
2023-04-19T05:06:32.634Z,244.02
2023-04-19T05:07:32.678Z,243.41
2023-04-19T05:08:32.742Z,244.99
2023-04-19T05:09:32.764Z,242.56
2023-04-19T05:10:32.824Z,240.23
2023-04-19T05:11:32.858Z,242.02
2023-04-19T05:12:32.891Z,240.41
2023-04-19T05:13:32.946Z,243.31
2023-04-19T05:14:32.975Z,242.08
2023-04-19T05:15:33.042Z,240.09
2023-04-19T05:16:33.162Z,242.11
2023-04-19T05:17:33.145Z,240.98
2023-04-19T05:18:33.147Z,242.28
2023-04-19T05:19:33.210Z,242.05
2023-04-19T05:20:33.264Z,239.87
2023-04-19T05:21:33.287Z,241.41
2023-04-19T05:22:33.399Z,242.96
2023-04-19T05:23:33.372Z,243.07
2023-04-19T05:24:33.402Z,242.51
2023-04-19T05:25:33.450Z,243.44
2023-04-19T05:26:33.509Z,244.91
2023-04-19T05:27:33.530Z,245.62
2023-04-19T05:28:33.859Z,245.69
2023-04-19T05:29:33.859Z,250.00
2023-04-19T05:30:33.671Z,250.13
2023-04-19T05:31:33.732Z,251.34
2023-04-19T05:32:33.814Z,250.00
2023-04-19T05:33:33.746Z,250.00
2023-04-19T05:34:33.805Z,250.00
2023-04-19T05:35:33.815Z,249.91
2023-04-19T05:36:33.852Z,250.08
2023-04-19T05:37:33.860Z,250.15
2023-04-19T05:38:33.897Z,264.04
2023-04-19T05:39:33.910Z,305.30
2023-04-19T05:40:33.930Z,291.76
2023-04-19T05:41:33.914Z,274.65
2023-04-19T05:42:34.018Z,263.17
2023-04-19T05:43:33.981Z,255.32
2023-04-19T05:44:33.975Z,250.00
2023-04-19T05:45:33.952Z,249.88
2023-04-19T05:46:33.970Z,248.63
2023-04-19T05:47:34.003Z,246.55
2023-04-19T05:48:33.936Z,246.51
2023-04-19T05:49:34.068Z,245.53
2023-04-19T05:50:33.963Z,243.80
2023-04-19T05:51:33.945Z,244.39
2023-04-19T05:52:33.973Z,245.01
2023-04-19T05:53:34.000Z,244.28
2023-04-19T05:54:34.022Z,245.51
2023-04-19T05:55:34.063Z,245.28
2023-04-19T05:56:34.069Z,244.71
2023-04-19T05:57:34.139Z,246.11
2023-04-19T05:58:34.243Z,244.89
2023-04-19T05:59:34.243Z,245.99
2023-04-19T06:00:34.265Z,244.84
2023-04-19T06:01:34.375Z,245.89
2023-04-19T06:02:34.438Z,246.00
2023-04-19T06:03:34.653Z,244.19
2023-04-19T06:04:34.976Z,243.46
2023-04-19T06:05:34.578Z,244.23
2023-04-19T06:06:34.572Z,243.50
2023-04-19T06:07:40.189Z,242.81
2023-04-19T06:08:35.610Z,242.87
2023-04-19T06:09:34.637Z,240.65
2023-04-19T06:10:48.865Z,241.70
2023-04-19T06:11:46.896Z,242.85
2023-04-19T06:12:35.571Z,242.88
2023-04-19T06:13:34.568Z,242.92
2023-04-19T06:14:34.652Z,239.51
2023-04-19T06:15:34.539Z,238.81
2023-04-19T06:16:34.631Z,240.03
2023-04-19T06:17:34.594Z,239.14
2023-04-19T06:18:34.542Z,237.25
2023-04-19T06:19:34.527Z,238.55
2023-04-19T06:20:34.516Z,238.97
2023-04-19T06:21:34.494Z,235.14
2023-04-19T06:22:34.518Z,235.16
2023-04-19T06:23:34.491Z,235.10
2023-04-19T06:24:35.435Z,231.29
2023-04-19T06:25:34.469Z,230.93
2023-04-19T06:26:34.452Z,230.68
2023-04-19T06:27:34.447Z,229.71
2023-04-19T06:28:34.435Z,227.62
2023-04-19T06:29:34.412Z,228.35
2023-04-19T06:30:34.911Z,226.10
2023-04-19T06:31:34.508Z,220.82
2023-04-19T06:32:34.450Z,219.79
2023-04-19T06:33:34.403Z,216.83
2023-04-19T06:34:34.883Z,215.00
2023-04-19T06:35:34.893Z,212.27
2023-04-19T06:36:34.509Z,214.77
2023-04-19T06:37:34.549Z,224.37
2023-04-19T06:38:34.550Z,221.62
2023-04-19T06:39:34.616Z,224.88
2023-04-19T06:40:34.711Z,226.50
2023-04-19T06:41:34.679Z,228.03
2023-04-19T06:42:34.734Z,227.71
2023-04-19T06:43:34.809Z,227.89
2023-04-19T06:44:34.935Z,228.15
2023-04-19T06:45:34.923Z,226.97
2023-04-19T06:46:34.920Z,226.29
2023-04-19T06:47:35.814Z,225.00
2023-04-19T06:48:35.015Z,225.96
2023-04-19T06:49:35.074Z,224.02
2023-04-19T06:50:35.129Z,222.95
2023-04-19T06:51:35.048Z,224.61
2023-04-19T06:52:35.108Z,223.98
2023-04-19T06:53:35.131Z,224.69
2023-04-19T06:54:35.204Z,226.09
2023-04-19T06:55:35.383Z,226.84
2023-04-19T06:56:35.243Z,229.24
2023-04-19T06:57:35.262Z,228.39
2023-04-19T06:58:35.790Z,230.51
2023-04-19T06:59:35.416Z,230.96
2023-04-19T07:00:35.298Z,230.84
2023-04-19T07:01:35.363Z,231.47
2023-04-19T07:02:35.615Z,230.80
2023-04-19T07:03:35.597Z,232.26
2023-04-19T07:04:35.517Z,232.23
2023-04-19T07:05:36.304Z,232.32
2023-04-19T07:06:35.420Z,232.53
2023-04-19T07:07:35.445Z,233.70
2023-04-19T07:08:48.680Z,234.58
2023-04-19T07:09:36.449Z,234.61
2023-04-19T07:10:35.437Z,234.58
2023-04-19T07:11:35.453Z,234.36
2023-04-19T07:12:35.420Z,234.07
2023-04-19T07:13:35.405Z,234.64
2023-04-19T07:14:35.430Z,234.53
2023-04-19T07:15:35.919Z,234.96
2023-04-19T07:16:35.395Z,235.10
2023-04-19T07:17:35.461Z,236.16
2023-04-19T07:18:35.377Z,236.10
2023-04-19T07:19:35.389Z,236.90
2023-04-19T07:20:35.408Z,236.07
2023-04-19T07:21:35.360Z,236.22
2023-04-19T07:22:35.330Z,235.82
2023-04-19T07:23:35.356Z,235.23
2023-04-19T07:24:35.352Z,230.91
2023-04-19T07:25:35.420Z,226.86
2023-04-19T07:26:35.312Z,230.00
2023-04-19T07:27:35.333Z,252.37
2023-04-19T07:28:35.299Z,259.04
2023-04-19T07:29:35.418Z,252.21
2023-04-19T07:30:35.307Z,239.79
2023-04-19T07:31:35.291Z,224.87
2023-04-19T07:32:35.370Z,219.21
2023-04-19T07:33:35.332Z,214.70
2023-04-19T07:34:35.369Z,211.62
2023-04-19T07:35:35.392Z,207.36
2023-04-19T07:36:35.498Z,203.97
2023-04-19T07:37:35.506Z,198.15
2023-04-19T07:38:35.531Z,191.46
2023-04-19T07:39:35.584Z,179.69
2023-04-19T07:40:35.623Z,175.31
2023-04-19T07:41:36.442Z,170.74
2023-04-19T07:42:35.734Z,162.21
2023-04-19T07:43:35.798Z,153.99
2023-04-19T07:44:35.954Z,148.35
2023-04-19T07:45:35.926Z,141.15
2023-04-19T07:46:35.996Z,139.59
2023-04-19T07:47:36.043Z,135.68
2023-04-19T07:48:36.077Z,130.56
2023-04-19T07:49:36.163Z,121.59
2023-04-19T07:50:36.221Z,116.44
2023-04-19T07:51:36.228Z,115.70
2023-04-19T07:52:36.202Z,108.93
2023-04-19T07:53:36.233Z,110.77
2023-04-19T07:54:36.457Z,109.78
2023-04-19T07:55:36.401Z,108.69
2023-04-19T07:56:36.343Z,108.22
2023-04-19T07:57:36.327Z,109.08
2023-04-19T07:58:36.300Z,105.60
2023-04-19T07:59:36.363Z,106.47
2023-04-19T08:00:36.361Z,102.08
2023-04-19T08:01:36.470Z,104.85
2023-04-19T08:02:36.530Z,101.97
2023-04-19T08:03:36.642Z,103.35
2023-04-19T08:04:36.918Z,103.44
2023-04-19T08:05:37.021Z,101.13
2023-04-19T08:06:36.633Z,102.47
2023-04-19T08:07:36.473Z,101.27
2023-04-19T08:08:36.457Z,102.39
2023-04-19T08:09:36.545Z,101.44
2023-04-19T08:10:36.971Z,102.33
2023-04-19T08:11:36.595Z,100.06
2023-04-19T08:12:42.790Z,99.10
2023-04-19T08:13:37.906Z,96.43
2023-04-19T08:14:47.599Z,92.00
2023-04-19T08:16:20.340Z,94.63
2023-04-19T08:17:41.801Z,92.92
2023-04-19T08:18:37.683Z,94.13
2023-04-19T08:19:36.926Z,91.01
2023-04-19T08:20:36.527Z,88.95
2023-04-19T08:21:41.114Z,87.33
2023-04-19T08:22:36.513Z,93.77
2023-04-19T08:23:45.262Z,94.47
2023-04-19T08:24:37.952Z,94.99
2023-04-19T08:25:36.933Z,95.15
2023-04-19T08:26:36.510Z,91.78
2023-04-19T08:27:36.470Z,92.25
2023-04-19T08:28:36.488Z,88.51
2023-04-19T08:29:36.462Z,88.47
2023-04-19T08:30:36.462Z,91.89
2023-04-19T08:31:36.461Z,93.60
2023-04-19T08:32:36.452Z,93.32
2023-04-19T08:33:36.440Z,89.63
2023-04-19T08:34:37.913Z,90.72
2023-04-19T08:35:36.430Z,89.77
2023-04-19T08:36:43.257Z,91.30
2023-04-19T08:37:37.410Z,91.32
2023-04-19T08:38:36.582Z,93.16
2023-04-19T08:39:36.613Z,100.86
2023-04-19T08:40:36.431Z,113.75
2023-04-19T08:41:36.380Z,127.96
2023-04-19T08:42:37.281Z,134.16
2023-04-19T08:43:36.381Z,137.73
2023-04-19T08:44:37.626Z,139.55
2023-04-19T08:45:37.357Z,139.73
2023-04-19T08:46:36.555Z,140.78
2023-04-19T08:47:41.974Z,143.47
2023-04-19T08:48:37.428Z,140.02
2023-04-19T08:49:36.376Z,140.75
2023-04-19T08:50:45.537Z,143.67
2023-04-19T08:51:37.354Z,140.00
2023-04-19T08:52:48.001Z,141.93
2023-04-19T08:53:37.347Z,140.20
2023-04-19T08:54:36.484Z,142.88
2023-04-19T08:55:36.289Z,147.25
2023-04-19T08:56:36.299Z,154.33
2023-04-19T08:57:36.283Z,163.54
2023-04-19T08:58:52.001Z,168.93
2023-04-19T08:59:37.265Z,169.07
2023-04-19T09:00:36.278Z,169.45
2023-04-19T09:01:36.731Z,170.36
2023-04-19T09:02:36.576Z,172.17
2023-04-19T09:03:47.355Z,175.94
2023-04-19T09:04:37.922Z,169.26
2023-04-19T09:05:36.451Z,170.04
2023-04-19T09:06:36.432Z,171.64
2023-04-19T09:07:36.213Z,175.30
2023-04-19T09:08:36.188Z,178.82
2023-04-19T09:09:43.020Z,181.96
2023-04-19T09:10:37.461Z,181.07
2023-04-19T09:11:36.202Z,182.02
2023-04-19T09:12:36.240Z,181.51
2023-04-19T09:13:36.174Z,182.34
2023-04-19T09:14:36.155Z,183.68
2023-04-19T09:15:36.166Z,183.87
2023-04-19T09:16:36.132Z,183.43
2023-04-19T09:17:36.177Z,183.55
2023-04-19T09:18:42.567Z,183.48
2023-04-19T09:19:37.100Z,183.56
2023-04-19T09:20:36.454Z,183.57
2023-04-19T09:21:36.121Z,182.00
2023-04-19T09:22:36.133Z,179.73
2023-04-19T09:23:36.096Z,178.83
2023-04-19T09:24:57.440Z,179.65
2023-04-19T09:25:52.820Z,179.69
2023-04-19T09:26:37.952Z,177.27
2023-04-19T09:27:36.040Z,167.72
2023-04-19T09:28:36.095Z,166.09
2023-04-19T09:29:36.056Z,166.28
2023-04-19T09:30:46.788Z,167.81
2023-04-19T09:31:50.719Z,169.98
2023-04-19T09:32:37.066Z,170.16
2023-04-19T09:33:36.033Z,166.77
2023-04-19T09:34:35.977Z,163.09
2023-04-19T09:35:36.993Z,166.15
2023-04-19T09:36:35.998Z,198.68
2023-04-19T09:37:57.452Z,208.58
2023-04-19T09:38:36.952Z,200.62
2023-04-19T09:39:35.939Z,193.73
2023-04-19T09:40:36.472Z,191.89
2023-04-19T09:41:37.433Z,191.92
2023-04-19T09:42:58.785Z,192.70
2023-04-19T09:43:58.874Z,196.34
2023-04-19T09:45:35.899Z,196.73
2023-04-19T09:46:35.977Z,194.51
2023-04-19T09:47:35.960Z,192.81
2023-04-19T09:48:35.959Z,193.42
2023-04-19T09:50:50.610Z,182.18
2023-04-19T09:51:36.897Z,182.27
2023-04-19T09:52:35.874Z,182.68
2023-04-19T09:53:35.847Z,183.30
2023-04-19T09:54:35.834Z,183.40
2023-04-19T09:55:52.564Z,184.32
2023-04-19T09:56:36.959Z,182.24
2023-04-19T09:57:35.814Z,177.91
2023-04-19T09:59:35.835Z,182.51
2023-04-19T10:00:41.919Z,182.91
2023-04-19T10:01:36.804Z,182.35
2023-04-19T10:02:36.567Z,182.92
2023-04-19T10:03:36.084Z,183.98
2023-04-19T10:04:54.704Z,182.79
2023-04-19T10:05:36.911Z,182.25
2023-04-19T10:06:58.492Z,182.47
2023-04-19T10:07:36.940Z,182.37
2023-04-19T10:08:35.743Z,182.95
2023-04-19T10:09:40.042Z,184.01
2023-04-19T10:11:35.740Z,184.18
2023-04-19T10:13:35.697Z,183.48
2023-04-19T10:14:35.735Z,185.49
2023-04-19T10:15:49.238Z,185.67
2023-04-19T10:16:37.040Z,182.32
2023-04-19T10:17:35.707Z,172.78
2023-04-19T10:18:35.696Z,167.05
2023-04-19T10:19:35.650Z,162.91
2023-04-19T10:20:35.665Z,163.56
2023-04-19T10:21:36.007Z,165.98
2023-04-19T10:22:36.482Z,167.72
2023-04-19T10:23:35.666Z,170.28
2023-04-19T10:24:35.615Z,173.11
2023-04-19T10:25:36.134Z,176.17
2023-04-19T10:26:35.625Z,176.32
2023-04-19T10:27:35.633Z,179.67
2023-04-19T10:28:35.603Z,181.00
2023-04-19T10:29:35.605Z,174.78
2023-04-19T10:30:35.597Z,166.79
2023-04-19T10:31:35.629Z,154.00
2023-04-19T10:32:35.601Z,153.64
2023-04-19T10:33:35.565Z,156.67
2023-04-19T10:34:35.580Z,152.81
2023-04-19T10:35:35.561Z,157.16
2023-04-19T10:36:35.985Z,163.94
2023-04-19T10:37:35.530Z,166.64
2023-04-19T10:38:35.532Z,168.11
2023-04-19T10:39:35.536Z,168.34
2023-04-19T10:40:35.513Z,168.18
2023-04-19T10:41:35.571Z,168.88
2023-04-19T10:42:35.566Z,168.94
2023-04-19T10:43:35.568Z,167.70
2023-04-19T10:44:35.578Z,168.12
2023-04-19T10:45:36.078Z,171.24
2023-04-19T10:46:35.890Z,171.99
2023-04-19T10:47:35.685Z,170.34
2023-04-19T10:48:35.714Z,168.38
2023-04-19T10:49:35.672Z,164.41
2023-04-19T10:50:35.691Z,163.71
2023-04-19T10:51:35.689Z,159.87
2023-04-19T10:52:35.728Z,157.89
2023-04-19T10:53:35.719Z,158.20
2023-04-19T10:54:35.739Z,152.16
2023-04-19T10:55:35.773Z,150.61
2023-04-19T10:56:35.883Z,147.42
2023-04-19T10:57:35.836Z,137.32
2023-04-19T10:58:35.872Z,140.05
2023-04-19T10:59:35.863Z,141.38
2023-04-19T11:00:35.855Z,147.37
2023-04-19T11:01:35.907Z,143.84
2023-04-19T11:02:35.995Z,145.88
2023-04-19T11:03:36.123Z,146.31
2023-04-19T11:04:36.049Z,146.33
2023-04-19T11:05:35.982Z,148.92
2023-04-19T11:06:36.017Z,150.26
2023-04-19T11:07:36.031Z,151.32
2023-04-19T11:08:36.045Z,150.15
2023-04-19T11:09:36.083Z,149.21
2023-04-19T11:10:36.114Z,150.53
2023-04-19T11:11:36.524Z,149.44
2023-04-19T11:12:36.149Z,152.46
2023-04-19T11:13:36.177Z,150.05
2023-04-19T11:14:36.205Z,141.80
2023-04-19T11:15:36.252Z,142.59
2023-04-19T11:16:45.747Z,142.73
2023-04-19T11:17:37.278Z,142.85
2023-04-19T11:18:36.352Z,143.68
2023-04-19T11:19:36.196Z,145.16
2023-04-19T11:20:36.214Z,146.30
2023-04-19T11:21:36.191Z,147.41
2023-04-19T11:22:36.202Z,144.21
2023-04-19T11:23:36.186Z,142.26
2023-04-19T11:24:36.162Z,141.65
2023-04-19T11:25:36.151Z,141.80
2023-04-19T11:26:36.150Z,141.82
2023-04-19T11:27:36.159Z,142.57
2023-04-19T11:28:36.139Z,144.06
2023-04-19T11:29:36.128Z,149.32
2023-04-19T11:30:36.139Z,145.05
2023-04-19T11:31:36.130Z,143.80
2023-04-19T11:32:36.214Z,139.24
2023-04-19T11:33:36.086Z,139.59
2023-04-19T11:34:36.196Z,141.43
2023-04-19T11:35:36.073Z,141.91
2023-04-19T11:36:36.061Z,139.49
2023-04-19T11:38:22.985Z,25.00
2023-04-19T11:39:22.974Z,25.00
2023-04-19T11:40:22.997Z,25.00
2023-04-19T11:41:22.978Z,25.00
2023-04-19T11:42:22.973Z,25.00
2023-04-19T11:43:22.985Z,26.84
2023-04-19T11:44:22.945Z,24.52
2023-04-19T11:45:30.168Z,25.01
2023-04-19T11:46:23.980Z,25.25
2023-04-19T11:47:22.991Z,19.45
2023-04-19T11:48:22.937Z,16.19
2023-04-19T11:49:22.931Z,13.99
2023-04-19T11:50:22.982Z,21.34
2023-04-19T11:51:22.924Z,29.89
2023-04-19T11:52:22.934Z,27.64
2023-04-19T11:53:22.943Z,25.92
2023-04-19T11:54:22.899Z,28.32
2023-04-19T11:55:22.894Z,24.75
2023-04-19T11:56:22.883Z,25.63
2023-04-19T11:57:22.880Z,27.42
2023-04-19T11:58:22.859Z,37.85
2023-04-19T11:59:22.860Z,35.85
2023-04-19T12:00:22.847Z,39.15
2023-04-19T12:01:22.825Z,37.18
2023-04-19T12:02:23.583Z,31.49
2023-04-19T12:03:24.951Z,26.55
2023-04-19T12:04:22.952Z,31.22
2023-04-19T12:05:23.002Z,26.80
2023-04-19T12:06:23.039Z,27.65
2023-04-19T12:07:22.825Z,31.98
2023-04-19T12:08:22.822Z,40.02
2023-04-19T12:09:24.062Z,25.00
2023-04-19T12:10:22.797Z,27.13
2023-04-19T12:11:22.804Z,29.72
2023-04-19T12:12:22.812Z,30.64
2023-04-19T12:13:22.758Z,30.79
2023-04-19T12:14:22.745Z,27.09
2023-04-19T12:15:24.831Z,27.27
2023-04-19T12:16:22.758Z,27.15
2023-04-19T12:17:22.748Z,21.69
2023-04-19T12:18:22.816Z,22.03
2023-04-19T12:19:22.725Z,14.41
2023-04-19T12:20:22.739Z,5.55
2023-04-19T12:21:22.763Z,24.64
2023-04-19T12:22:22.831Z,28.32
2023-04-19T12:23:22.683Z,39.97
2023-04-19T12:24:22.673Z,36.59
2023-04-19T12:25:22.694Z,26.99
2023-04-19T12:26:22.671Z,43.65
2023-04-19T12:27:22.668Z,45.30
2023-04-19T12:28:22.640Z,25.00
2023-04-19T12:29:22.634Z,47.72
2023-04-19T12:30:22.613Z,56.16
2023-04-19T12:31:22.638Z,45.94
2023-04-19T12:32:22.701Z,47.75
2023-04-19T12:33:23.795Z,25.00
2023-04-19T12:34:22.597Z,40.60
2023-04-19T12:35:22.595Z,41.71
2023-04-19T12:36:22.579Z,12.34
2023-04-19T12:37:22.582Z,17.46
2023-04-19T12:38:22.551Z,29.44